createdAt,value
2023-03-29T00:02:07.694Z,4.00
2023-03-29T00:04:35.626Z,3.83
2023-03-29T00:07:04.633Z,3.60
2023-03-29T00:09:33.546Z,3.90
2023-03-29T00:12:01.536Z,3.37
2023-03-29T00:14:30.437Z,3.37
2023-03-29T00:16:58.870Z,3.33
2023-03-29T00:19:26.269Z,4.00
2023-03-29T00:21:53.485Z,3.70
2023-03-29T00:24:21.480Z,3.43
2023-03-29T00:26:48.856Z,3.40
2023-03-29T00:29:16.681Z,3.90
2023-03-29T00:31:55.060Z,3.77
2023-03-29T00:34:26.404Z,3.17
2023-03-29T00:36:57.923Z,3.30
2023-03-29T00:39:26.419Z,3.40
2023-03-29T00:41:53.776Z,4.40
2023-03-29T00:44:39.802Z,3.40
2023-03-29T00:47:06.996Z,3.00
2023-03-29T00:49:35.884Z,3.40
2023-03-29T00:52:03.559Z,3.73
2023-03-29T00:54:30.707Z,3.50
2023-03-29T00:56:58.134Z,3.33
2023-03-29T00:59:27.888Z,3.33
2023-03-29T01:01:59.937Z,3.13
2023-03-29T01:04:30.962Z,3.10
2023-03-29T01:07:01.811Z,3.37
2023-03-29T01:09:30.443Z,2.97
2023-03-29T01:11:59.535Z,3.33
2023-03-29T01:14:30.014Z,3.10
2023-03-29T01:16:57.475Z,2.90
2023-03-29T01:19:27.173Z,3.17
2023-03-29T01:22:02.220Z,3.17
2023-03-29T01:24:44.578Z,3.20
2023-03-29T01:27:18.220Z,3.20
2023-03-29T01:29:48.539Z,3.30
2023-03-29T01:32:18.592Z,3.10
2023-03-29T01:34:48.524Z,3.00
2023-03-29T01:37:19.279Z,3.73
2023-03-29T01:39:47.207Z,3.23
2023-03-29T01:42:29.112Z,3.43
2023-03-29T01:45:02.030Z,3.60
2023-03-29T01:47:37.872Z,3.73
2023-03-29T01:50:16.722Z,3.03
2023-03-29T01:52:48.147Z,3.63
2023-03-29T01:55:36.377Z,2.83
2023-03-29T01:58:05.145Z,3.40
2023-03-29T02:00:34.302Z,3.23
2023-03-29T02:03:04.561Z,3.33
2023-03-29T02:05:31.997Z,3.30
2023-03-29T02:08:00.984Z,3.03
2023-03-29T02:10:28.863Z,2.90
2023-03-29T02:12:56.478Z,3.60
2023-03-29T02:15:23.705Z,3.50
2023-03-29T02:17:51.563Z,3.10
2023-03-29T02:20:23.965Z,3.13
2023-03-29T02:23:02.325Z,3.57
2023-03-29T02:25:30.151Z,3.10
2023-03-29T02:27:57.746Z,3.07
2023-03-29T02:30:25.919Z,3.27
2023-03-29T02:33:02.128Z,3.43
2023-03-29T02:35:35.187Z,2.87
2023-03-29T02:38:05.103Z,3.00
2023-03-29T02:40:33.441Z,2.77
2023-03-29T02:43:01.998Z,3.00
2023-03-29T02:45:29.917Z,3.60
2023-03-29T02:47:58.634Z,3.37
2023-03-29T02:50:28.501Z,3.23
2023-03-29T02:52:59.246Z,3.00
2023-03-29T02:55:31.332Z,3.57
2023-03-29T02:57:58.726Z,3.37
2023-03-29T03:00:25.977Z,3.10
2023-03-29T03:02:53.214Z,3.20
2023-03-29T03:05:20.520Z,3.70
2023-03-29T03:07:47.742Z,3.80
2023-03-29T03:10:15.129Z,5.23
2023-03-29T03:12:42.316Z,2.97
2023-03-29T03:15:10.515Z,3.70
2023-03-29T03:17:40.062Z,3.63
2023-03-29T03:20:12.616Z,3.50
2023-03-29T03:22:44.061Z,4.00
2023-03-29T03:25:11.373Z,3.80
2023-03-29T03:27:39.765Z,3.73
2023-03-29T03:30:07.257Z,3.73
2023-03-29T03:32:37.550Z,3.33
2023-03-29T03:35:05.623Z,4.40
2023-03-29T03:37:32.864Z,4.73
2023-03-29T03:40:00.691Z,3.90
2023-03-29T03:42:28.944Z,3.60
2023-03-29T03:44:56.614Z,4.07
2023-03-29T03:47:23.810Z,3.90
2023-03-29T03:49:51.551Z,3.40
2023-03-29T03:52:19.564Z,3.97
2023-03-29T03:54:48.150Z,4.30
2023-03-29T03:57:15.471Z,3.37
2023-03-29T03:59:43.048Z,3.67
2023-03-29T04:02:10.479Z,3.83
2023-03-29T04:04:37.979Z,4.10
2023-03-29T04:07:05.550Z,3.80
2023-03-29T04:09:33.520Z,3.50
2023-03-29T04:12:01.687Z,3.60
2023-03-29T04:14:28.897Z,4.00
2023-03-29T04:16:56.394Z,4.00
2023-03-29T04:19:23.547Z,4.57
2023-03-29T04:21:51.429Z,4.10
2023-03-29T04:24:18.768Z,4.67
2023-03-29T04:26:45.995Z,4.37
2023-03-29T04:29:13.464Z,3.67
2023-03-29T04:31:40.652Z,4.33
2023-03-29T04:34:08.368Z,4.47
2023-03-29T04:36:35.558Z,4.63
2023-03-29T04:39:04.230Z,4.50
2023-03-29T04:41:32.733Z,4.57
2023-03-29T04:43:59.948Z,4.33
2023-03-29T04:46:27.269Z,5.00
2023-03-29T04:48:54.607Z,5.67
2023-03-29T04:51:22.385Z,5.30
2023-03-29T04:53:50.484Z,5.40
2023-03-29T04:56:17.951Z,6.57
2023-03-29T04:58:45.306Z,5.40
2023-03-29T05:01:12.610Z,5.77
2023-03-29T05:03:39.832Z,6.17
2023-03-29T05:06:07.745Z,6.03
2023-03-29T05:08:35.384Z,6.37
2023-03-29T05:11:02.701Z,6.20
2023-03-29T05:13:30.045Z,6.57
2023-03-29T05:15:57.280Z,7.40
2023-03-29T05:18:25.276Z,5.63
2023-03-29T05:20:54.143Z,6.13
2023-03-29T05:23:21.564Z,6.70
2023-03-29T05:25:49.115Z,6.83
2023-03-29T05:28:17.186Z,6.80
2023-03-29T05:30:44.732Z,7.63
2023-03-29T05:33:12.180Z,6.77
2023-03-29T05:35:39.612Z,6.33
2023-03-29T05:38:06.966Z,7.43
2023-03-29T05:40:35.891Z,7.13
2023-03-29T05:43:05.744Z,7.20
2023-03-29T05:45:34.185Z,5.97
2023-03-29T05:48:01.943Z,7.33
2023-03-29T05:50:30.143Z,7.87
2023-03-29T05:52:58.132Z,6.83
2023-03-29T05:55:25.264Z,6.93
2023-03-29T05:57:52.558Z,6.80
2023-03-29T06:00:23.493Z,6.90
2023-03-29T06:02:52.555Z,6.63
2023-03-29T06:05:20.263Z,6.50
2023-03-29T06:07:49.143Z,6.77
2023-03-29T06:10:16.293Z,7.30
2023-03-29T06:12:43.469Z,6.60
2023-03-29T06:15:10.904Z,6.73
2023-03-29T06:17:39.670Z,6.53
2023-03-29T06:20:11.509Z,7.10
2023-03-29T06:22:39.396Z,7.03
2023-03-29T06:25:07.519Z,6.77
2023-03-29T06:27:34.923Z,9.97
2023-03-29T06:30:02.606Z,6.40
2023-03-29T06:32:29.791Z,6.47
2023-03-29T06:34:56.946Z,7.20
2023-03-29T06:37:24.116Z,5.73
2023-03-29T06:39:53.430Z,5.97
2023-03-29T06:42:21.932Z,6.30
2023-03-29T06:44:49.744Z,6.57
2023-03-29T06:47:17.436Z,5.80
2023-03-29T06:49:45.029Z,5.83
2023-03-29T06:52:12.287Z,6.03
2023-03-29T06:54:39.665Z,5.93
2023-03-29T06:57:09.083Z,5.40
2023-03-29T06:59:36.294Z,6.33
2023-03-29T07:02:03.484Z,6.17
2023-03-29T07:04:32.257Z,5.70
2023-03-29T07:07:03.499Z,5.77
2023-03-29T07:09:33.449Z,5.73
2023-03-29T07:12:01.475Z,5.83
2023-03-29T07:14:30.032Z,5.70
2023-03-29T07:16:58.410Z,9.10
2023-03-29T07:19:29.101Z,5.17
2023-03-29T07:21:57.050Z,5.07
2023-03-29T07:24:24.171Z,5.03
2023-03-29T07:27:03.228Z,4.23
2023-03-29T07:29:31.773Z,4.77
2023-03-29T07:31:59.043Z,4.60
2023-03-29T07:34:27.154Z,4.50
2023-03-29T07:36:54.656Z,4.23
2023-03-29T07:39:22.359Z,3.70
2023-03-29T07:41:49.520Z,4.00
2023-03-29T07:44:18.311Z,4.17
2023-03-29T07:46:45.486Z,4.37
2023-03-29T07:49:12.707Z,4.87
2023-03-29T07:51:39.903Z,4.50
2023-03-29T07:54:07.830Z,4.20
2023-03-29T07:56:38.464Z,3.67
2023-03-29T07:59:05.691Z,4.03
2023-03-29T08:01:32.888Z,4.00
2023-03-29T08:04:00.240Z,4.03
2023-03-29T08:06:28.345Z,4.87
2023-03-29T08:08:55.480Z,3.97
2023-03-29T08:11:24.610Z,3.87
2023-03-29T08:13:51.921Z,4.40
2023-03-29T08:16:19.550Z,4.60
2023-03-29T08:18:46.778Z,4.03
2023-03-29T08:21:14.754Z,4.37
2023-03-29T08:23:42.055Z,5.33
2023-03-29T08:26:09.736Z,6.87
2023-03-29T08:28:36.947Z,5.07
2023-03-29T08:31:06.425Z,4.53
2023-03-29T08:33:33.627Z,5.10
2023-03-29T08:36:01.069Z,3.87
2023-03-29T08:38:28.758Z,5.20
2023-03-29T08:40:56.062Z,5.00
2023-03-29T08:43:44.643Z,5.00
2023-03-29T08:46:17.741Z,4.57
2023-03-29T08:48:46.378Z,4.13
2023-03-29T08:51:33.909Z,4.70
2023-03-29T08:54:04.865Z,4.40
2023-03-29T08:56:34.250Z,4.43
2023-03-29T08:59:02.011Z,5.27
2023-03-29T09:01:32.449Z,5.37
2023-03-29T09:04:17.113Z,4.90
2023-03-29T09:06:44.764Z,3.93
2023-03-29T09:09:22.462Z,4.40
2023-03-29T09:11:58.913Z,5.13
2023-03-29T09:14:48.731Z,4.67
2023-03-29T09:17:38.219Z,4.70
2023-03-29T09:20:13.456Z,4.20
2023-03-29T09:22:47.140Z,5.37
2023-03-29T09:25:36.224Z,5.13
2023-03-29T09:28:20.327Z,4.80
2023-03-29T09:30:52.888Z,5.03
2023-03-29T09:33:37.171Z,4.90
2023-03-29T09:36:07.963Z,4.63
2023-03-29T09:38:37.943Z,4.47
2023-03-29T09:41:07.748Z,4.70
2023-03-29T09:43:41.314Z,5.43
2023-03-29T09:46:16.060Z,5.03
2023-03-29T09:48:44.316Z,4.70
2023-03-29T09:51:12.900Z,4.97
2023-03-29T09:53:40.252Z,4.97
2023-03-29T09:56:08.508Z,5.60
2023-03-29T09:58:36.212Z,5.17
2023-03-29T10:01:05.812Z,5.33
2023-03-29T10:03:35.200Z,4.77
2023-03-29T10:06:05.557Z,5.03
2023-03-29T10:08:43.140Z,4.97
2023-03-29T10:11:15.621Z,4.40
2023-03-29T10:13:49.199Z,4.10
2023-03-29T10:16:21.598Z,5.13
2023-03-29T10:18:50.292Z,4.83
2023-03-29T10:21:20.848Z,4.87
2023-03-29T10:23:48.772Z,5.53
2023-03-29T10:26:24.279Z,5.13
2023-03-29T10:28:53.702Z,4.57
2023-03-29T10:31:22.449Z,4.33
2023-03-29T10:33:56.903Z,4.97
2023-03-29T10:36:26.331Z,4.78
2023-03-29T10:38:54.894Z,5.43
2023-03-29T10:41:23.109Z,5.20
2023-03-29T10:43:51.696Z,5.15
2023-03-29T10:46:40.756Z,4.90
2023-03-29T10:49:19.552Z,5.35
2023-03-29T10:51:49.310Z,5.53
2023-03-29T10:54:22.145Z,5.18
2023-03-29T10:57:08.632Z,4.15
2023-03-29T10:59:38.364Z,4.63
2023-03-29T11:02:14.291Z,4.88
2023-03-29T11:05:00.100Z,5.28
2023-03-29T11:07:29.876Z,4.88
2023-03-29T11:10:28.404Z,4.80
2023-03-29T11:13:19.305Z,4.82
2023-03-29T11:16:06.362Z,4.82
2023-03-29T11:18:45.375Z,4.72
2023-03-29T11:21:36.018Z,10.10
2023-03-29T11:24:23.700Z,5.38
2023-03-29T11:27:13.324Z,4.47
2023-03-29T11:30:18.062Z,5.43
2023-03-29T11:32:44.997Z,4.78
2023-03-29T11:35:37.901Z,5.78
2023-03-29T11:38:35.391Z,5.25
2023-03-29T11:41:23.304Z,4.28
2023-03-29T11:44:00.334Z,5.55
2023-03-29T11:46:47.885Z,5.40
2023-03-29T11:49:18.311Z,5.50
2023-03-29T11:51:54.391Z,3.75
2023-03-29T11:54:41.148Z,5.43
2023-03-29T11:57:13.661Z,4.97
2023-03-29T12:00:22.127Z,4.53
2023-03-29T12:03:13.886Z,4.18
2023-03-29T12:05:48.193Z,4.13
2023-03-29T12:08:37.898Z,3.40
2023-03-29T12:11:19.060Z,3.20
2023-03-29T12:14:08.106Z,4.03
2023-03-29T12:16:38.268Z,3.42
2023-03-29T12:19:18.598Z,3.08
2023-03-29T12:21:47.401Z,3.40
2023-03-29T12:24:16.794Z,3.80
2023-03-29T12:27:02.982Z,3.13
2023-03-29T12:29:41.513Z,3.17
2023-03-29T12:32:27.483Z,3.50
2023-03-29T12:34:54.789Z,2.95
2023-03-29T12:37:48.312Z,3.53
2023-03-29T12:40:19.816Z,4.10
2023-03-29T12:42:47.051Z,3.40
2023-03-29T12:45:40.582Z,3.65
2023-03-29T12:48:08.602Z,3.78
2023-03-29T12:50:46.033Z,3.58
2023-03-29T12:53:13.138Z,3.35
2023-03-29T12:55:43.469Z,3.55
2023-03-29T12:58:26.488Z,3.90
2023-03-29T13:01:07.648Z,3.80
2023-03-29T13:03:43.393Z,5.35
2023-03-29T13:06:12.566Z,3.72
2023-03-29T13:08:48.437Z,3.60
2023-03-29T13:11:27.640Z,3.80
2023-03-29T13:13:54.840Z,3.08
2023-03-29T13:16:29.335Z,2.50
2023-03-29T13:18:56.472Z,3.17
2023-03-29T13:21:23.558Z,3.08
2023-03-29T13:24:06.719Z,2.92
2023-03-29T13:26:37.903Z,3.38
2023-03-29T13:29:32.633Z,2.92
2023-03-29T13:32:04.566Z,2.72
2023-03-29T13:34:45.476Z,3.00
2023-03-29T13:37:21.808Z,3.58
2023-03-29T13:39:53.722Z,2.90
2023-03-29T13:42:24.773Z,5.03
2023-03-29T13:44:52.462Z,2.72
2023-03-29T13:47:19.651Z,3.13
2023-03-29T13:49:53.435Z,3.58
2023-03-29T13:52:22.521Z,4.70
2023-03-29T13:54:54.739Z,3.55
2023-03-29T13:57:31.644Z,4.05
2023-03-29T14:00:12.220Z,4.30
2023-03-29T14:02:49.409Z,3.63
2023-03-29T14:05:22.137Z,3.38
2023-03-29T14:07:53.686Z,4.30
2023-03-29T14:10:24.986Z,3.70
2023-03-29T14:12:53.594Z,3.55
2023-03-29T14:15:22.797Z,3.88
2023-03-29T14:17:50.743Z,3.60
2023-03-29T14:20:18.006Z,3.60
2023-03-29T14:22:45.473Z,2.92
2023-03-29T14:25:17.472Z,3.03
2023-03-29T14:27:44.868Z,2.60
2023-03-29T14:30:27.513Z,2.03
2023-03-29T14:32:56.907Z,2.25
2023-03-29T14:35:32.304Z,1.95
2023-03-29T14:38:00.109Z,1.95
2023-03-29T14:40:27.793Z,2.10
2023-03-29T14:42:55.218Z,2.10
2023-03-29T14:45:23.561Z,1.90
2023-03-29T14:47:51.349Z,1.65
2023-03-29T14:50:30.841Z,2.10
2023-03-29T14:52:59.224Z,1.95
2023-03-29T14:55:27.256Z,2.65
2023-03-29T14:57:55.624Z,2.17
2023-03-29T15:00:28.880Z,2.65
2023-03-29T15:03:03.127Z,2.35
2023-03-29T15:05:38.166Z,2.88
2023-03-29T15:08:07.574Z,3.25
2023-03-29T15:10:35.827Z,4.15
2023-03-29T15:13:05.290Z,5.18
2023-03-29T15:15:34.569Z,3.53
2023-03-29T15:18:02.613Z,4.15
2023-03-29T15:20:31.132Z,2.83
2023-03-29T15:23:16.534Z,2.30
2023-03-29T15:25:49.114Z,2.72
2023-03-29T15:28:36.560Z,2.90
2023-03-29T15:31:10.641Z,2.50
2023-03-29T15:33:39.038Z,2.45
2023-03-29T15:36:09.862Z,1.90
2023-03-29T15:38:43.782Z,2.35
2023-03-29T15:41:11.865Z,2.05
2023-03-29T15:43:39.119Z,1.70
2023-03-29T15:46:08.692Z,2.10
2023-03-29T15:48:36.643Z,1.80
2023-03-29T15:51:06.436Z,1.73
2023-03-29T15:53:36.528Z,2.15
2023-03-29T15:56:07.090Z,1.45
2023-03-29T15:58:38.084Z,1.98
2023-03-29T16:01:13.316Z,3.22
2023-03-29T16:03:41.722Z,2.10
2023-03-29T16:06:12.751Z,1.90
2023-03-29T16:08:41.531Z,1.83
2023-03-29T16:11:09.224Z,1.85
2023-03-29T16:13:36.622Z,2.42
2023-03-29T16:16:04.226Z,2.28
2023-03-29T16:18:31.561Z,2.08
2023-03-29T16:20:59.451Z,1.75
2023-03-29T16:23:26.689Z,2.33
2023-03-29T16:25:53.940Z,2.13
2023-03-29T16:28:21.682Z,2.20
2023-03-29T16:30:49.035Z,2.80
2023-03-29T16:33:16.316Z,2.50
2023-03-29T16:35:43.723Z,2.00
2023-03-29T16:38:11.252Z,2.22
2023-03-29T16:40:38.513Z,1.95
2023-03-29T16:43:07.875Z,2.35
2023-03-29T16:45:38.244Z,2.35
2023-03-29T16:48:07.760Z,2.30
2023-03-29T16:50:41.047Z,2.00
2023-03-29T16:53:08.483Z,2.72
2023-03-29T16:55:39.278Z,2.40
2023-03-29T16:58:09.452Z,2.80
2023-03-29T17:00:38.194Z,2.83
2023-03-29T17:03:06.807Z,2.00
2023-03-29T17:05:40.489Z,2.15
2023-03-29T17:08:10.225Z,2.80
2023-03-29T17:10:38.060Z,2.42
2023-03-29T17:13:06.895Z,3.95
2023-03-29T17:15:38.146Z,2.55
2023-03-29T17:18:10.181Z,2.63
2023-03-29T17:20:39.657Z,2.40
2023-03-29T17:23:09.956Z,2.50
2023-03-29T17:25:37.639Z,2.35
2023-03-29T17:28:05.091Z,2.53
2023-03-29T17:30:36.244Z,2.20
2023-03-29T17:33:05.346Z,2.13
2023-03-29T17:35:33.092Z,3.08
2023-03-29T17:38:01.420Z,2.60
2023-03-29T17:40:28.619Z,2.88
2023-03-29T17:42:56.295Z,2.60
2023-03-29T17:45:23.434Z,2.28
2023-03-29T17:47:50.753Z,11.63
2023-03-29T17:50:18.054Z,3.03
2023-03-29T17:52:45.311Z,2.55
2023-03-29T17:55:15.668Z,2.30
2023-03-29T17:57:43.870Z,3.30
2023-03-29T18:00:12.704Z,2.40
2023-03-29T18:02:40.632Z,2.25
2023-03-29T18:05:09.460Z,3.13
2023-03-29T18:07:37.023Z,2.33
2023-03-29T18:10:04.737Z,2.50
2023-03-29T18:12:32.104Z,2.88
2023-03-29T18:14:59.609Z,3.35
2023-03-29T18:17:27.842Z,2.65
2023-03-29T18:19:55.356Z,2.53
2023-03-29T18:22:24.114Z,2.13
2023-03-29T18:24:51.648Z,2.25
2023-03-29T18:27:19.053Z,3.05
2023-03-29T18:29:46.372Z,3.15
2023-03-29T18:32:13.641Z,2.42
2023-03-29T18:34:40.938Z,2.25
2023-03-29T18:37:14.466Z,2.40
2023-03-29T18:39:42.036Z,2.83
2023-03-29T18:42:12.052Z,2.80
2023-03-29T18:44:40.668Z,2.55
2023-03-29T18:47:08.562Z,2.88
2023-03-29T18:49:38.744Z,2.50
2023-03-29T18:52:06.110Z,2.45
2023-03-29T18:54:33.308Z,3.67
2023-03-29T18:57:00.855Z,2.72
2023-03-29T18:59:28.151Z,2.97
2023-03-29T19:01:55.913Z,3.22
2023-03-29T19:04:25.062Z,3.15
2023-03-29T19:06:55.603Z,3.22
2023-03-29T19:09:23.222Z,3.50
2023-03-29T19:11:50.436Z,3.70
2023-03-29T19:14:23.402Z,3.60
2023-03-29T19:16:51.952Z,3.10
2023-03-29T19:19:19.737Z,2.92
2023-03-29T19:21:47.453Z,3.90
2023-03-29T19:24:15.390Z,3.80
2023-03-29T19:26:44.460Z,3.53
2023-03-29T19:29:11.841Z,3.80
2023-03-29T19:31:39.203Z,3.60
2023-03-29T19:34:12.439Z,3.45
2023-03-29T19:36:39.751Z,3.10
2023-03-29T19:39:07.340Z,3.45
2023-03-29T19:41:34.552Z,4.78
2023-03-29T19:44:01.859Z,3.30
2023-03-29T19:46:29.246Z,3.47
2023-03-29T19:48:56.671Z,3.78
2023-03-29T19:51:26.812Z,5.32
2023-03-29T19:53:55.058Z,3.53
2023-03-29T19:56:23.470Z,3.50
2023-03-29T19:58:51.145Z,3.33
2023-03-29T20:01:20.855Z,3.17
2023-03-29T20:03:49.167Z,2.90
2023-03-29T20:06:17.504Z,2.85
2023-03-29T20:08:45.218Z,3.13
2023-03-29T20:11:13.616Z,3.35
2023-03-29T20:13:44.841Z,3.17
2023-03-29T20:16:13.600Z,2.75
2023-03-29T20:18:41.028Z,3.45
2023-03-29T20:21:08.747Z,3.10
2023-03-29T20:23:38.940Z,6.45
2023-03-29T20:26:07.379Z,3.97
2023-03-29T20:28:37.212Z,2.45
2023-03-29T20:31:08.323Z,2.47
2023-03-29T20:33:35.485Z,2.60
2023-03-29T20:36:02.784Z,2.70
2023-03-29T20:38:30.012Z,2.47
2023-03-29T20:40:57.226Z,3.50
2023-03-29T20:43:24.733Z,2.60
2023-03-29T20:45:53.618Z,3.57
2023-03-29T20:48:23.477Z,2.57
2023-03-29T20:50:51.531Z,2.50
2023-03-29T20:53:20.512Z,3.22
2023-03-29T20:55:48.356Z,2.70
2023-03-29T20:58:16.047Z,2.87
2023-03-29T21:00:43.841Z,3.45
2023-03-29T21:03:11.525Z,3.07
2023-03-29T21:05:39.122Z,3.40
2023-03-29T21:08:09.041Z,2.90
2023-03-29T21:10:36.603Z,2.97
2023-03-29T21:13:03.816Z,3.17
2023-03-29T21:15:31.954Z,3.00
2023-03-29T21:17:59.373Z,3.08
2023-03-29T21:20:27.543Z,2.65
2023-03-29T21:22:54.879Z,3.85
2023-03-29T21:25:22.306Z,2.90
2023-03-29T21:27:49.657Z,3.30
2023-03-29T21:30:17.072Z,3.87
2023-03-29T21:32:44.250Z,3.00
2023-03-29T21:35:11.887Z,3.23
2023-03-29T21:37:39.230Z,3.10
2023-03-29T21:40:07.095Z,3.70
2023-03-29T21:42:35.384Z,6.43
2023-03-29T21:45:03.001Z,3.13
2023-03-29T21:47:30.494Z,2.90
2023-03-29T21:49:57.665Z,2.70
2023-03-29T21:52:24.838Z,3.10
2023-03-29T21:54:52.055Z,3.37
2023-03-29T21:57:19.296Z,3.23
2023-03-29T21:59:46.601Z,3.00
2023-03-29T22:02:13.810Z,3.00
2023-03-29T22:04:41.424Z,3.97
2023-03-29T22:07:10.647Z,3.70
2023-03-29T22:09:37.947Z,3.20
2023-03-29T22:12:05.404Z,2.90
2023-03-29T22:14:36.136Z,2.80
2023-03-29T22:17:05.937Z,2.80
2023-03-29T22:19:36.833Z,2.87
2023-03-29T22:22:07.156Z,2.53
2023-03-29T22:24:34.420Z,3.10
2023-03-29T22:27:01.654Z,2.97
2023-03-29T22:29:28.837Z,2.77
2023-03-29T22:31:56.402Z,2.70
2023-03-29T22:34:23.975Z,2.60
2023-03-29T22:36:51.676Z,3.10
2023-03-29T22:39:18.805Z,2.87
2023-03-29T22:41:46.511Z,2.87
2023-03-29T22:44:13.653Z,3.20
2023-03-29T22:46:41.299Z,2.63
2023-03-29T22:49:08.429Z,2.50
2023-03-29T22:51:35.827Z,2.60
2023-03-29T22:54:03.034Z,2.70
2023-03-29T22:56:30.459Z,2.87
2023-03-29T22:58:57.648Z,2.27
2023-03-29T23:01:24.984Z,2.73
2023-03-29T23:03:52.147Z,2.70
2023-03-29T23:06:19.413Z,2.70
2023-03-29T23:08:46.612Z,2.77
2023-03-29T23:11:13.858Z,2.47
2023-03-29T23:13:41.170Z,3.50
2023-03-29T23:16:08.431Z,2.67
2023-03-29T23:18:38.909Z,2.60
2023-03-29T23:21:08.846Z,2.60
2023-03-29T23:23:39.445Z,2.80
2023-03-29T23:26:09.349Z,2.70
2023-03-29T23:28:36.479Z,2.60
2023-03-29T23:31:10.541Z,2.30
2023-03-29T23:33:40.377Z,2.73
2023-03-29T23:36:09.532Z,3.00
2023-03-29T23:38:37.978Z,3.23
2023-03-29T23:41:06.572Z,3.00
2023-03-29T23:43:38.663Z,2.80
2023-03-29T23:46:07.110Z,2.57
2023-03-29T23:48:34.560Z,2.70
2023-03-29T23:51:02.839Z,3.67
2023-03-29T23:53:31.272Z,2.87
2023-03-29T23:56:00.346Z,2.97
2023-03-29T23:58:38.199Z,2.77
